Main page


Airports :

Aberdeen, Scotland

Aberdeen Airport

latitude: 57-12N, longitude: 002-13W, elevation: 65 m

Current weather observation

The report was made 23 minutes ago, at 17:20 UTC
Wind 5 kt from the West/Northwest
Temperature 7°C
Humidity 45%
Pressure 1030 hPa
Visibility 10 km or more

METAR: EGPD 201720Z AUTO 30005KT 9999 NCD 07/M04 Q1030 NOSIG

Time: 17:43 (17:43 UTC)


The report was made 45 minutes ago, at 16:58 UTC
Forecast valid from 20 at 18 UTC to 21 at 18 UTC
Wind 8 kt from the West
Visibility 10 km or more
Few clouds at a height of 3500 ft
from 21 at 10 UTC to 21 at 14 UTC
Visibility: 6000 m
from 21 at 16 UTC to 21 at 18 UTC
Broken clouds at a height of 1200 ft

TAF: EGPD 201658Z 2018/2118 28008KT 9999 FEW035 TEMPO 2110/2114 6000 RA TEMPO 2116/2118 BKN012

Weather observations and forecasts of more than 4000 airports (METAR and TAF reports).

The available stations are represented by yellow and red dots on the map.

Hover mouse over dot to see the name of the station.

Then click to see weather observations and forecasts.

To change the map : click on the green buttons with a black cross to zoom in, on the green button with a dash to zoom out, or on the green arrows for adjacent maps.